sensor_id;sensor_type;location;lat;lon;timestamp;pressure;altitude;pressure_sealevel;temperature;humidity
61026;BME280;46911;32.650;-16.902;2023-01-08T00:00:04;102635.47;;;16.08;66.86
61026;BME280;46911;32.650;-16.902;2023-01-08T00:02:12;102632.34;;;15.99;66.59
61026;BME280;46911;32.650;-16.902;2023-01-08T00:04:13;102632.94;;;16.04;66.66
61026;BME280;46911;32.650;-16.902;2023-01-08T00:06:19;102622.66;;;15.97;66.29
61026;BME280;46911;32.650;-16.902;2023-01-08T00:08:28;102620.03;;;15.95;65.99
61026;BME280;46911;32.650;-16.902;2023-01-08T00:10:29;102615.66;;;15.94;65.90
61026;BME280;46911;32.650;-16.902;2023-01-08T00:12:30;102623.53;;;15.97;65.74
61026;BME280;46911;32.650;-16.902;2023-01-08T00:14:31;102600.38;;;15.79;65.94
61026;BME280;46911;32.650;-16.902;2023-01-08T00:16:37;102624.66;;;15.93;66.18
61026;BME280;46911;32.650;-16.902;2023-01-08T00:18:40;102618.41;;;15.93;66.07
61026;BME280;46911;32.650;-16.902;2023-01-08T00:20:47;102605.59;;;15.82;66.28
61026;BME280;46911;32.650;-16.902;2023-01-08T00:22:49;102603.06;;;15.79;66.33
61026;BME280;46911;32.650;-16.902;2023-01-08T00:24:55;102616.94;;;15.87;66.59
61026;BME280;46911;32.650;-16.902;2023-01-08T00:26:58;102600.66;;;15.90;66.64
61026;BME280;46911;32.650;-16.902;2023-01-08T00:28:59;102602.09;;;15.96;66.57
61026;BME280;46911;32.650;-16.902;2023-01-08T00:31:07;102603.13;;;15.93;66.82
61026;BME280;46911;32.650;-16.902;2023-01-08T00:33:14;102600.16;;;15.83;66.66
61026;BME280;46911;32.650;-16.902;2023-01-08T00:35:17;102613.13;;;15.91;66.54
61026;BME280;46911;32.650;-16.902;2023-01-08T00:37:18;102613.69;;;15.96;66.71
61026;BME280;46911;32.650;-16.902;2023-01-08T00:39:21;102623.53;;;15.97;66.79
61026;BME280;46911;32.650;-16.902;2023-01-08T00:41:22;102601.41;;;15.92;66.97
61026;BME280;46911;32.650;-16.902;2023-01-08T00:43:25;102600.53;;;15.92;66.76
61026;BME280;46911;32.650;-16.902;2023-01-08T00:45:29;102606.59;;;15.95;66.77
61026;BME280;46911;32.650;-16.902;2023-01-08T00:47:29;102612.94;;;15.94;66.39
61026;BME280;46911;32.650;-16.902;2023-01-08T00:49:33;102593.69;;;15.86;66.39
61026;BME280;46911;32.650;-16.902;2023-01-08T00:51:34;102597.84;;;15.92;67.00
61026;BME280;46911;32.650;-16.902;2023-01-08T00:53:37;102598.91;;;15.89;67.02
61026;BME280;46911;32.650;-16.902;2023-01-08T00:55:38;102623.31;;;16.00;67.41
61026;BME280;46911;32.650;-16.902;2023-01-08T00:57:42;102619.88;;;15.98;66.80
61026;BME280;46911;32.650;-16.902;2023-01-08T00:59:43;102614.00;;;15.92;66.64
61026;BME280;46911;32.650;-16.902;2023-01-08T01:01:46;102605.94;;;15.92;66.85
61026;BME280;46911;32.650;-16.902;2023-01-08T01:03:49;102606.38;;;15.84;66.64
61026;BME280;46911;32.650;-16.902;2023-01-08T01:06:06;102612.81;;;15.81;66.83
61026;BME280;46911;32.650;-16.902;2023-01-08T01:08:07;102611.06;;;15.80;66.43
61026;BME280;46911;32.650;-16.902;2023-01-08T01:10:12;102609.50;;;15.76;66.57
61026;BME280;46911;32.650;-16.902;2023-01-08T01:12:14;102607.44;;;15.81;66.27
61026;BME280;46911;32.650;-16.902;2023-01-08T01:14:18;102611.97;;;15.81;66.09
61026;BME280;46911;32.650;-16.902;2023-01-08T01:16:22;102614.66;;;15.81;66.54
61026;BME280;46911;32.650;-16.902;2023-01-08T01:18:26;102610.13;;;15.81;66.95
61026;BME280;46911;32.650;-16.902;2023-01-08T01:20:29;102601.72;;;15.71;66.97
61026;BME280;46911;32.650;-16.902;2023-01-08T01:22:31;102597.38;;;15.69;66.76
61026;BME280;46911;32.650;-16.902;2023-01-08T01:24:32;102593.19;;;15.63;66.79
61026;BME280;46911;32.650;-16.902;2023-01-08T01:26:40;102590.63;;;15.62;66.83
61026;BME280;46911;32.650;-16.902;2023-01-08T01:28:41;102571.38;;;15.53;66.76
61026;BME280;46911;32.650;-16.902;2023-01-08T01:30:42;102567.94;;;15.51;66.59
61026;BME280;46911;32.650;-16.902;2023-01-08T01:32:43;102527.63;;;15.35;66.33
61026;BME280;46911;32.650;-16.902;2023-01-08T01:34:46;102568.25;;;15.61;66.43
61026;BME280;46911;32.650;-16.902;2023-01-08T01:36:49;102555.69;;;15.46;66.50
61026;BME280;46911;32.650;-16.902;2023-01-08T01:38:54;102565.91;;;15.55;66.52
61026;BME280;46911;32.650;-16.902;2023-01-08T01:41:01;102551.78;;;15.51;65.93
61026;BME280;46911;32.650;-16.902;2023-01-08T01:43:04;102551.59;;;15.54;65.90
61026;BME280;46911;32.650;-16.902;2023-01-08T01:45:26;102561.31;;;15.57;66.05
61026;BME280;46911;32.650;-16.902;2023-01-08T01:47:36;102565.81;;;15.56;65.51
61026;BME280;46911;32.650;-16.902;2023-01-08T01:49:40;102554.53;;;15.50;65.37
61026;BME280;46911;32.650;-16.902;2023-01-08T01:51:51;102546.47;;;15.50;65.11
61026;BME280;46911;32.650;-16.902;2023-01-08T01:53:53;102540.94;;;15.53;65.25
61026;BME280;46911;32.650;-16.902;2023-01-08T01:56:00;102548.56;;;15.61;64.72
61026;BME280;46911;32.650;-16.902;2023-01-08T01:58:07;102546.97;;;15.56;64.58
61026;BME280;46911;32.650;-16.902;2023-01-08T02:00:16;102542.59;;;15.55;64.36
61026;BME280;46911;32.650;-16.902;2023-01-08T02:02:17;102535.16;;;15.59;64.26
61026;BME280;46911;32.650;-16.902;2023-01-08T02:04:18;102562.50;;;15.67;64.34
61026;BME280;46911;32.650;-16.902;2023-01-08T02:11:21;102572.28;;;15.68;64.86
61026;BME280;46911;32.650;-16.902;2023-01-08T02:13:28;102570.84;;;15.63;64.99
61026;BME280;46911;32.650;-16.902;2023-01-08T02:15:42;102553.34;;;15.55;65.06
61026;BME280;46911;32.650;-16.902;2023-01-08T02:18:02;102561.84;;;15.48;65.78
61026;BME280;46911;32.650;-16.902;2023-01-08T02:20:17;102569.84;;;15.49;65.29
61026;BME280;46911;32.650;-16.902;2023-01-08T02:26:54;102572.25;;;15.54;66.13
61026;BME280;46911;32.650;-16.902;2023-01-08T02:31:01;102566.28;;;15.49;66.26
61026;BME280;46911;32.650;-16.902;2023-01-08T02:33:05;102566.94;;;15.52;66.32
61026;BME280;46911;32.650;-16.902;2023-01-08T02:35:08;102564.66;;;15.46;65.95
61026;BME280;46911;32.650;-16.902;2023-01-08T02:37:11;102556.72;;;15.43;65.83
61026;BME280;46911;32.650;-16.902;2023-01-08T02:41:26;102556.78;;;15.57;65.67
61026;BME280;46911;32.650;-16.902;2023-01-08T02:43:45;102573.44;;;15.64;65.17
61026;BME280;46911;32.650;-16.902;2023-01-08T02:45:49;102574.84;;;15.55;65.36
61026;BME280;46911;32.650;-16.902;2023-01-08T02:48:22;102582.00;;;15.71;65.58
61026;BME280;46911;32.650;-16.902;2023-01-08T02:50:26;102586.72;;;15.67;65.56
61026;BME280;46911;32.650;-16.902;2023-01-08T02:52:32;102574.66;;;15.59;65.50
61026;BME280;46911;32.650;-16.902;2023-01-08T02:54:37;102585.94;;;15.65;65.46
61026;BME280;46911;32.650;-16.902;2023-01-08T02:56:43;102579.84;;;15.62;65.15
61026;BME280;46911;32.650;-16.902;2023-01-08T02:58:48;102588.03;;;15.60;65.54
61026;BME280;46911;32.650;-16.902;2023-01-08T03:00:53;102580.53;;;15.65;65.14
61026;BME280;46911;32.650;-16.902;2023-01-08T03:03:11;102582.94;;;15.70;65.22
61026;BME280;46911;32.650;-16.902;2023-01-08T03:05:25;102574.47;;;15.62;65.37
61026;BME280;46911;32.650;-16.902;2023-01-08T03:07:30;102573.88;;;15.56;65.15
61026;BME280;46911;32.650;-16.902;2023-01-08T03:09:31;102573.81;;;15.58;65.01
61026;BME280;46911;32.650;-16.902;2023-01-08T03:11:38;102581.78;;;15.60;64.79
61026;BME280;46911;32.650;-16.902;2023-01-08T03:16:38;102570.44;;;15.54;65.12
61026;BME280;46911;32.650;-16.902;2023-01-08T03:18:45;102573.97;;;15.55;65.09
61026;BME280;46911;32.650;-16.902;2023-01-08T03:20:52;102556.69;;;15.45;64.80
61026;BME280;46911;32.650;-16.902;2023-01-08T03:22:57;102573.13;;;15.54;64.94
61026;BME280;46911;32.650;-16.902;2023-01-08T03:25:02;102572.25;;;15.54;64.82
61026;BME280;46911;32.650;-16.902;2023-01-08T03:27:05;102562.97;;;15.60;64.77
61026;BME280;46911;32.650;-16.902;2023-01-08T03:29:13;102568.44;;;15.58;64.88
61026;BME280;46911;32.650;-16.902;2023-01-08T03:31:17;102567.44;;;15.59;64.66
61026;BME280;46911;32.650;-16.902;2023-01-08T03:33:20;102566.41;;;15.62;64.24
61026;BME280;46911;32.650;-16.902;2023-01-08T03:35:26;102561.22;;;15.59;64.33
61026;BME280;46911;32.650;-16.902;2023-01-08T03:37:42;102566.25;;;15.65;64.28
61026;BME280;46911;32.650;-16.902;2023-01-08T03:39:51;102568.03;;;15.64;64.63
61026;BME280;46911;32.650;-16.902;2023-01-08T03:41:59;102560.38;;;15.58;64.33
61026;BME280;46911;32.650;-16.902;2023-01-08T03:44:02;102573.25;;;15.67;64.30
61026;BME280;46911;32.650;-16.902;2023-01-08T03:46:08;102577.94;;;15.64;64.77
61026;BME280;46911;32.650;-16.902;2023-01-08T03:48:17;102574.31;;;15.65;64.86
61026;BME280;46911;32.650;-16.902;2023-01-08T03:50:24;102577.16;;;15.62;64.79
61026;BME280;46911;32.650;-16.902;2023-01-08T03:52:29;102564.75;;;15.59;64.90
61026;BME280;46911;32.650;-16.902;2023-01-08T03:54:33;102567.66;;;15.56;64.90
61026;BME280;46911;32.650;-16.902;2023-01-08T03:56:34;102561.31;;;15.57;64.75
61026;BME280;46911;32.650;-16.902;2023-01-08T03:58:39;102574.03;;;15.69;64.62
61026;BME280;46911;32.650;-16.902;2023-01-08T04:00:43;102571.91;;;15.74;64.43
61026;BME280;46911;32.650;-16.902;2023-01-08T04:02:48;102564.38;;;15.81;64.08
61026;BME280;46911;32.650;-16.902;2023-01-08T04:04:51;102564.19;;;15.84;64.07
61026;BME280;46911;32.650;-16.902;2023-01-08T04:06:52;102556.34;;;15.96;63.67
61026;BME280;46911;32.650;-16.902;2023-01-08T04:08:56;102561.81;;;16.09;63.56
61026;BME280;46911;32.650;-16.902;2023-01-08T04:10:57;102557.59;;;16.19;63.61
61026;BME280;46911;32.650;-16.902;2023-01-08T04:12:58;102550.00;;;16.26;63.22
61026;BME280;46911;32.650;-16.902;2023-01-08T04:14:59;102571.53;;;16.40;63.16
61026;BME280;46911;32.650;-16.902;2023-01-08T04:16:59;102549.88;;;16.42;63.32
61026;BME280;46911;32.650;-16.902;2023-01-08T04:19:09;102554.91;;;16.48;63.12
61026;BME280;46911;32.650;-16.902;2023-01-08T04:21:12;102551.41;;;16.60;62.59
61026;BME280;46911;32.650;-16.902;2023-01-08T04:23:14;102560.06;;;16.65;62.95
61026;BME280;46911;32.650;-16.902;2023-01-08T04:25:19;102573.13;;;16.71;63.07
61026;BME280;46911;32.650;-16.902;2023-01-08T04:27:23;102561.28;;;16.74;63.02
61026;BME280;46911;32.650;-16.902;2023-01-08T04:29:26;102552.94;;;16.64;62.88
61026;BME280;46911;32.650;-16.902;2023-01-08T04:31:30;102539.78;;;16.60;62.89
61026;BME280;46911;32.650;-16.902;2023-01-08T04:33:31;102534.78;;;16.39;63.45
61026;BME280;46911;32.650;-16.902;2023-01-08T04:35:34;102542.66;;;16.42;63.73
61026;BME280;46911;32.650;-16.902;2023-01-08T04:37:35;102556.63;;;16.34;64.08
61026;BME280;46911;32.650;-16.902;2023-01-08T04:39:36;102552.41;;;16.30;64.05
61026;BME280;46911;32.650;-16.902;2023-01-08T04:41:37;102550.19;;;16.22;64.23
61026;BME280;46911;32.650;-16.902;2023-01-08T04:43:38;102552.31;;;16.17;64.54
61026;BME280;46911;32.650;-16.902;2023-01-08T04:45:38;102553.47;;;16.13;64.80
61026;BME280;46911;32.650;-16.902;2023-01-08T04:47:44;102551.03;;;16.09;65.10
61026;BME280;46911;32.650;-16.902;2023-01-08T04:49:48;102548.91;;;15.99;65.29
61026;BME280;46911;32.650;-16.902;2023-01-08T04:51:49;102557.56;;;16.04;65.88
61026;BME280;46911;32.650;-16.902;2023-01-08T04:53:49;102541.81;;;15.98;66.04
61026;BME280;46911;32.650;-16.902;2023-01-08T04:55:56;102549.69;;;16.01;66.06
61026;BME280;46911;32.650;-16.902;2023-01-08T04:58:06;102545.47;;;15.97;66.06
61026;BME280;46911;32.650;-16.902;2023-01-08T05:00:13;102552.97;;;16.06;66.13
61026;BME280;46911;32.650;-16.902;2023-01-08T05:02:18;102548.66;;;16.04;66.02
61026;BME280;46911;32.650;-16.902;2023-01-08T05:04:19;102542.41;;;16.03;65.97
61026;BME280;46911;32.650;-16.902;2023-01-08T05:06:20;102534.22;;;16.05;66.11
61026;BME280;46911;32.650;-16.902;2023-01-08T05:08:21;102538.56;;;16.08;66.08
61026;BME280;46911;32.650;-16.902;2023-01-08T05:10:25;102542.97;;;16.09;66.34
61026;BME280;46911;32.650;-16.902;2023-01-08T05:12:26;102513.53;;;15.91;66.59
61026;BME280;46911;32.650;-16.902;2023-01-08T05:14:31;102530.84;;;16.01;67.10
61026;BME280;46911;32.650;-16.902;2023-01-08T05:16:32;102530.28;;;15.96;67.64
61026;BME280;46911;32.650;-16.902;2023-01-08T05:18:35;102528.94;;;16.03;67.68
61026;BME280;46911;32.650;-16.902;2023-01-08T05:20:36;102531.16;;;15.97;67.87
61026;BME280;46911;32.650;-16.902;2023-01-08T05:22:37;102528.72;;;15.92;68.18
61026;BME280;46911;32.650;-16.902;2023-01-08T05:24:40;102521.81;;;15.88;68.39
61026;BME280;46911;32.650;-16.902;2023-01-08T05:26:41;102525.66;;;15.84;68.60
61026;BME280;46911;32.650;-16.902;2023-01-08T05:28:42;102521.03;;;15.86;68.62
61026;BME280;46911;32.650;-16.902;2023-01-08T05:30:43;102509.09;;;15.76;68.71
61026;BME280;46911;32.650;-16.902;2023-01-08T05:32:46;102527.19;;;15.88;68.97
61026;BME280;46911;32.650;-16.902;2023-01-08T05:34:50;102516.97;;;15.79;69.04
61026;BME280;46911;32.650;-16.902;2023-01-08T05:36:55;102522.34;;;15.79;69.30
61026;BME280;46911;32.650;-16.902;2023-01-08T05:38:58;102526.59;;;15.83;69.25
61026;BME280;46911;32.650;-16.902;2023-01-08T05:40:59;102537.97;;;15.88;69.41
61026;BME280;46911;32.650;-16.902;2023-01-08T05:43:06;102523.41;;;15.76;69.63
61026;BME280;46911;32.650;-16.902;2023-01-08T05:45:10;102524.44;;;15.73;69.69
61026;BME280;46911;32.650;-16.902;2023-01-08T05:47:11;102515.63;;;15.71;69.71
61026;BME280;46911;32.650;-16.902;2023-01-08T05:49:12;102527.72;;;15.79;69.88
61026;BME280;46911;32.650;-16.902;2023-01-08T05:51:13;102518.88;;;15.77;70.00
61026;BME280;46911;32.650;-16.902;2023-01-08T05:53:14;102520.28;;;15.84;69.50
61026;BME280;46911;32.650;-16.902;2023-01-08T05:55:15;102515.56;;;15.87;69.48
61026;BME280;46911;32.650;-16.902;2023-01-08T05:57:18;102517.97;;;15.92;69.40
61026;BME280;46911;32.650;-16.902;2023-01-08T05:59:19;102496.91;;;15.84;69.40
61026;BME280;46911;32.650;-16.902;2023-01-08T06:01:23;102518.72;;;16.09;69.48
61026;BME280;46911;32.650;-16.902;2023-01-08T06:03:24;102526.22;;;16.18;69.28
61026;BME280;46911;32.650;-16.902;2023-01-08T06:05:30;102523.16;;;16.24;69.08
61026;BME280;46911;32.650;-16.902;2023-01-08T06:07:33;102532.19;;;16.37;69.23
61026;BME280;46911;32.650;-16.902;2023-01-08T06:09:34;102529.88;;;16.46;68.82
61026;BME280;46911;32.650;-16.902;2023-01-08T06:11:37;102524.28;;;16.49;68.75
61026;BME280;46911;32.650;-16.902;2023-01-08T06:13:41;102523.69;;;16.58;68.64
61026;BME280;46911;32.650;-16.902;2023-01-08T06:15:47;102530.63;;;16.62;69.13
61026;BME280;46911;32.650;-16.902;2023-01-08T06:17:51;102527.97;;;16.75;68.95
61026;BME280;46911;32.650;-16.902;2023-01-08T06:19:52;102514.41;;;16.77;68.57
61026;BME280;46911;32.650;-16.902;2023-01-08T06:21:53;102531.25;;;16.80;68.64
61026;BME280;46911;32.650;-16.902;2023-01-08T06:23:58;102510.97;;;16.74;68.43
61026;BME280;46911;32.650;-16.902;2023-01-08T06:26:00;102528.66;;;16.79;68.75
61026;BME280;46911;32.650;-16.902;2023-01-08T06:28:04;102490.41;;;16.59;68.79
61026;BME280;46911;32.650;-16.902;2023-01-08T06:30:07;102534.72;;;16.82;68.86
61026;BME280;46911;32.650;-16.902;2023-01-08T06:32:08;102538.28;;;16.83;69.01
61026;BME280;46911;32.650;-16.902;2023-01-08T06:34:10;102545.28;;;16.85;69.08
61026;BME280;46911;32.650;-16.902;2023-01-08T06:36:16;102530.84;;;16.86;69.11
61026;BME280;46911;32.650;-16.902;2023-01-08T06:38:18;102539.91;;;16.85;69.09
61026;BME280;46911;32.650;-16.902;2023-01-08T06:40:21;102546.13;;;16.86;69.52
61026;BME280;46911;32.650;-16.902;2023-01-08T06:42:22;102543.44;;;16.86;69.49
61026;BME280;46911;32.650;-16.902;2023-01-08T06:44:26;102539.00;;;16.85;69.81
61026;BME280;46911;32.650;-16.902;2023-01-08T06:46:27;102553.66;;;16.95;70.64
61026;BME280;46911;32.650;-16.902;2023-01-08T06:48:30;102547.41;;;16.95;70.44
61026;BME280;46911;32.650;-16.902;2023-01-08T06:50:34;102549.44;;;16.91;70.51
61026;BME280;46911;32.650;-16.902;2023-01-08T06:52:37;102547.63;;;16.92;70.34
61026;BME280;46911;32.650;-16.902;2023-01-08T06:54:38;102559.72;;;16.99;70.19
61026;BME280;46911;32.650;-16.902;2023-01-08T06:56:41;102547.31;;;16.96;70.11
61026;BME280;46911;32.650;-16.902;2023-01-08T06:58:45;102524.78;;;16.83;72.15
61026;BME280;46911;32.650;-16.902;2023-01-08T07:00:45;102560.75;;;17.11;74.20
61026;BME280;46911;32.650;-16.902;2023-01-08T07:02:47;102560.53;;;17.14;74.33
61026;BME280;46911;32.650;-16.902;2023-01-08T07:04:50;102557.16;;;17.10;73.86
61026;BME280;46911;32.650;-16.902;2023-01-08T07:06:53;102555.47;;;17.09;72.51
61026;BME280;46911;32.650;-16.902;2023-01-08T07:08:54;102561.91;;;17.06;71.64
61026;BME280;46911;32.650;-16.902;2023-01-08T07:10:55;102574.00;;;17.14;71.28
61026;BME280;46911;32.650;-16.902;2023-01-08T07:12:56;102559.22;;;17.06;70.83
61026;BME280;46911;32.650;-16.902;2023-01-08T07:15:00;102575.84;;;17.13;70.89
61026;BME280;46911;32.650;-16.902;2023-01-08T07:17:04;102560.75;;;17.11;70.73
61026;BME280;46911;32.650;-16.902;2023-01-08T07:19:05;102572.84;;;17.18;70.57
61026;BME280;46911;32.650;-16.902;2023-01-08T07:21:06;102572.16;;;17.14;70.74
61026;BME280;46911;32.650;-16.902;2023-01-08T07:23:09;102574.78;;;17.16;70.46
61026;BME280;46911;32.650;-16.902;2023-01-08T07:25:10;102568.63;;;17.14;70.38
61026;BME280;46911;32.650;-16.902;2023-01-08T07:27:14;102540.47;;;17.05;70.14
61026;BME280;46911;32.650;-16.902;2023-01-08T07:29:14;102577.06;;;17.22;70.23
61026;BME280;46911;32.650;-16.902;2023-01-08T07:31:18;102572.63;;;17.21;70.22
61026;BME280;46911;32.650;-16.902;2023-01-08T07:33:21;102588.63;;;17.24;70.11
61026;BME280;46911;32.650;-16.902;2023-01-08T07:35:25;102585.03;;;17.23;70.09
61026;BME280;46911;32.650;-16.902;2023-01-08T07:37:25;102587.56;;;17.27;70.10
61026;BME280;46911;32.650;-16.902;2023-01-08T07:39:29;102586.03;;;17.22;70.29
61026;BME280;46911;32.650;-16.902;2023-01-08T07:41:33;102591.31;;;17.24;70.38
61026;BME280;46911;32.650;-16.902;2023-01-08T07:43:35;102594.03;;;17.24;70.65
61026;BME280;46911;32.650;-16.902;2023-01-08T07:45:35;102588.81;;;17.21;70.73
61026;BME280;46911;32.650;-16.902;2023-01-08T07:47:36;102602.97;;;17.24;71.00
61026;BME280;46911;32.650;-16.902;2023-01-08T07:49:45;102593.25;;;17.22;71.34
61026;BME280;46911;32.650;-16.902;2023-01-08T07:51:49;102598.53;;;17.23;71.16
61026;BME280;46911;32.650;-16.902;2023-01-08T07:53:49;102588.81;;;17.21;71.22
61026;BME280;46911;32.650;-16.902;2023-01-08T07:55:51;102593.66;;;17.16;71.28
61026;BME280;46911;32.650;-16.902;2023-01-08T07:57:56;102609.63;;;17.19;71.51
61026;BME280;46911;32.650;-16.902;2023-01-08T07:59:57;102609.16;;;17.12;71.53
61026;BME280;46911;32.650;-16.902;2023-01-08T08:02:01;102608.84;;;17.17;71.43
61026;BME280;46911;32.650;-16.902;2023-01-08T08:04:05;102594.88;;;16.97;71.81
61026;BME280;46911;32.650;-16.902;2023-01-08T08:06:06;102615.84;;;17.06;71.93
61026;BME280;46911;32.650;-16.902;2023-01-08T08:08:08;102621.13;;;17.08;72.05
61026;BME280;46911;32.650;-16.902;2023-01-08T08:10:15;102620.06;;;17.11;72.02
61026;BME280;46911;32.650;-16.902;2023-01-08T08:12:20;102606.97;;;17.04;71.90
61026;BME280;46911;32.650;-16.902;2023-01-08T08:14:26;102625.25;;;17.14;71.84
61026;BME280;46911;32.650;-16.902;2023-01-08T08:16:29;102625.13;;;17.15;71.70
61026;BME280;46911;32.650;-16.902;2023-01-08T08:18:32;102610.13;;;17.11;71.70
61026;BME280;46911;32.650;-16.902;2023-01-08T08:20:33;102625.25;;;17.14;71.59
61026;BME280;46911;32.650;-16.902;2023-01-08T08:22:37;102613.03;;;17.08;71.72
61026;BME280;46911;32.650;-16.902;2023-01-08T08:24:40;102629.69;;;17.15;71.79
61026;BME280;46911;32.650;-16.902;2023-01-08T08:26:41;102633.34;;;17.14;71.93
61026;BME280;46911;32.650;-16.902;2023-01-08T08:28:44;102635.06;;;17.15;72.27
61026;BME280;46911;32.650;-16.902;2023-01-08T08:30:45;102631.69;;;17.11;72.62
61026;BME280;46911;32.650;-16.902;2023-01-08T08:32:52;102634.88;;;17.03;73.07
61026;BME280;46911;32.650;-16.902;2023-01-08T08:34:55;102620.75;;;16.85;73.41
61026;BME280;46911;32.650;-16.902;2023-01-08T08:37:00;102639.34;;;16.90;74.06
61026;BME280;46911;32.650;-16.902;2023-01-08T08:39:05;102637.13;;;16.82;74.63
61026;BME280;46911;32.650;-16.902;2023-01-08T08:41:06;102642.13;;;16.74;74.84
61026;BME280;46911;32.650;-16.902;2023-01-08T08:43:08;102643.47;;;16.67;75.08
61026;BME280;46911;32.650;-16.902;2023-01-08T08:45:12;102654.25;;;16.67;75.06
61026;BME280;46911;32.650;-16.902;2023-01-08T08:47:19;102659.66;;;16.67;75.08
61026;BME280;46911;32.650;-16.902;2023-01-08T08:49:20;102657.34;;;16.61;74.82
61026;BME280;46911;32.650;-16.902;2023-01-08T08:51:20;102649.44;;;16.57;74.85
61026;BME280;46911;32.650;-16.902;2023-01-08T08:53:24;102670.91;;;16.73;74.81
61026;BME280;46911;32.650;-16.902;2023-01-08T08:55:24;102667.63;;;16.83;74.69
61026;BME280;46911;32.650;-16.902;2023-01-08T08:57:26;102663.44;;;16.93;74.59
61026;BME280;46911;32.650;-16.902;2023-01-08T08:59:29;102668.19;;;17.17;73.80
61026;BME280;46911;32.650;-16.902;2023-01-08T09:01:33;102649.13;;;17.20;73.18
61026;BME280;46911;32.650;-16.902;2023-01-08T09:03:33;102673.50;;;17.46;72.87
61026;BME280;46911;32.650;-16.902;2023-01-08T09:05:35;102672.91;;;17.55;72.62
61026;BME280;46911;32.650;-16.902;2023-01-08T09:07:36;102683.53;;;17.71;72.20
61026;BME280;46911;32.650;-16.902;2023-01-08T09:09:37;102670.72;;;17.87;71.57
61026;BME280;46911;32.650;-16.902;2023-01-08T09:11:38;102685.59;;;18.07;70.99
61026;BME280;46911;32.650;-16.902;2023-01-08T09:13:42;102684.22;;;18.15;71.02
61026;BME280;46911;32.650;-16.902;2023-01-08T09:15:45;102682.69;;;18.11;71.04
61026;BME280;46911;32.650;-16.902;2023-01-08T09:17:55;102694.25;;;18.13;71.20
61026;BME280;46911;32.650;-16.902;2023-01-08T09:19:56;102684.84;;;18.05;71.12
61026;BME280;46911;32.650;-16.902;2023-01-08T09:21:57;102703.31;;;18.12;71.40
61026;BME280;46911;32.650;-16.902;2023-01-08T09:23:58;102692.72;;;18.09;71.67
61026;BME280;46911;32.650;-16.902;2023-01-08T09:26:03;102694.38;;;18.24;71.76
61026;BME280;46911;32.650;-16.902;2023-01-08T09:28:06;102702.06;;;18.43;71.41
61026;BME280;46911;32.650;-16.902;2023-01-08T09:30:11;102717.84;;;18.62;70.48
61026;BME280;46911;32.650;-16.902;2023-01-08T09:32:14;102702.28;;;18.79;70.33
61026;BME280;46911;32.650;-16.902;2023-01-08T09:34:15;102704.00;;;19.05;70.01
61026;BME280;46911;32.650;-16.902;2023-01-08T09:36:16;102709.88;;;19.36;68.98
61026;BME280;46911;32.650;-16.902;2023-01-08T09:38:20;102719.22;;;19.56;68.64
61026;BME280;46911;32.650;-16.902;2023-01-08T09:40:38;102722.84;;;19.68;67.58
61026;BME280;46911;32.650;-16.902;2023-01-08T09:42:55;102715.13;;;19.75;67.45
61026;BME280;46911;32.650;-16.902;2023-01-08T09:44:58;102724.31;;;19.85;67.42
61026;BME280;46911;32.650;-16.902;2023-01-08T09:47:04;102719.19;;;19.94;67.17
61026;BME280;46911;32.650;-16.902;2023-01-08T09:49:20;102727.47;;;20.03;67.30
61026;BME280;46911;32.650;-16.902;2023-01-08T09:51:33;102736.63;;;20.14;66.76
61026;BME280;46911;32.650;-16.902;2023-01-08T09:53:36;102731.22;;;20.25;66.47
61026;BME280;46911;32.650;-16.902;2023-01-08T09:55:37;102740.78;;;20.53;65.91
61026;BME280;46911;32.650;-16.902;2023-01-08T09:57:39;102741.94;;;20.73;64.65
61026;BME280;46911;32.650;-16.902;2023-01-08T09:59:41;102732.53;;;20.66;64.35
61026;BME280;46911;32.650;-16.902;2023-01-08T10:01:43;102754.53;;;20.74;64.39
61026;BME280;46911;32.650;-16.902;2023-01-08T10:04:33;102752.44;;;20.78;64.60
61026;BME280;46911;32.650;-16.902;2023-01-08T10:06:15;102758.59;;;20.80;64.59
61026;BME280;46911;32.650;-16.902;2023-01-08T10:08:19;102747.16;;;20.77;64.30
61026;BME280;46911;32.650;-16.902;2023-01-08T10:10:26;102759.00;;;20.98;64.14
61026;BME280;46911;32.650;-16.902;2023-01-08T10:12:30;102761.94;;;21.06;63.87
61026;BME280;46911;32.650;-16.902;2023-01-08T10:14:33;102761.81;;;21.08;63.56
61026;BME280;46911;32.650;-16.902;2023-01-08T10:16:40;102761.69;;;21.21;63.74
61026;BME280;46911;32.650;-16.902;2023-01-08T10:18:44;102753.03;;;21.27;63.10
61026;BME280;46911;32.650;-16.902;2023-01-08T10:20:48;102754.41;;;21.33;63.37
61026;BME280;46911;32.650;-16.902;2023-01-08T10:22:50;102753.03;;;21.38;63.21
61026;BME280;46911;32.650;-16.902;2023-01-08T10:25:16;102772.00;;;21.50;63.01
61026;BME280;46911;32.650;-16.902;2023-01-08T10:27:22;102765.84;;;21.48;62.86
61026;BME280;46911;32.650;-16.902;2023-01-08T10:29:23;102775.00;;;21.47;62.44
61026;BME280;46911;32.650;-16.902;2023-01-08T10:31:24;102767.22;;;21.31;62.94
61026;BME280;46911;32.650;-16.902;2023-01-08T10:33:30;102777.47;;;21.38;63.25
61026;BME280;46911;32.650;-16.902;2023-01-08T10:35:37;102772.03;;;21.27;63.95
61026;BME280;46911;32.650;-16.902;2023-01-08T10:37:43;102781.59;;;21.77;63.10
61026;BME280;46911;32.650;-16.902;2023-01-08T10:39:47;102778.00;;;22.83;60.27
61026;BME280;46911;32.650;-16.902;2023-01-08T10:41:49;102773.78;;;23.82;57.21
61026;BME280;46911;32.650;-16.902;2023-01-08T10:44:04;102758.56;;;24.67;55.26
61026;BME280;46911;32.650;-16.902;2023-01-08T10:46:11;102771.00;;;25.73;52.69
61026;BME280;46911;32.650;-16.902;2023-01-08T10:48:19;102784.50;;;26.47;50.88